Главная страница
METAR-TAF:

METAR-TAF

Аэропорты :

Нукус, Узбекистан

широта: 42-28-48N, долгота: 059-37-48E, высота над уровнем моря: 77 м

Текущие метеонаблюдения

Эта сводка был подготовлена 34 минут назад, в 22:00 UTC
Ветер 4 Узел от северный
Температура 21°C
Влажность 40%
Давление 1008 hPa
Видимость 10 км и более
Нет облачности ниже 1500 м, и нет кучево-дождевой облачности

METAR: UTNN 172200Z 36004KT CAVOK 21/07 Q1008 R33/CLRD60 NOSIG

Время: 03:34 (22:34 UTC)

Прогноз

Эта сводка был подготовлена 5 часа и 34 минут назад, в 17:00 UTC
Прогноз действительный с 17-го 18 UTC до 18-го 18 UTC
Ветер 4 Узел переменных направлений
Видимость 10 км и более
Отдельные облака на высоте 6000 фута, Кучево-дождевые.
Отдельные облака на высоте 10000 фута
временами
С 18-го 04 UTC до 18-го 16 UTC
Ветер 12 Узел от северный с порывами до 22 Узел

TAF: UTNN 171700Z 1718/1818 VRB04KT 9999 SCT060CB SCT100 TEMPO 1804/1816 01012G22KT

Метеонаблюдения и прогнозы для более 4000 аэропортов (сводки METAR и TAF).

Имеющиеся станции представлены на карте желтыми и красными точками.

Чтобы увидеть название станции, наведите на нее мышь.

Затем щелкните, чтобы увидеть метеонаблюдения и метеопрогнозы.

Управление картой: чтобы увеличить масштаб, щелкните зеленые кнопки с черным крестиком; чтобы уменьшить масштаб, щелкните зеленую кнопку с тире; для просмотра соседних карт щелкайте зеленые стрелки.


METAR-TAF: